Time;durP1;ratioP1;P1;durP2;ratioP2;P2;SDS_P1;SDS_P2;PMS_P1;PMS_P2;Temp;Humidity;BMP_temperature;BMP_pressure;BME280_temperature;BME280_humidity;BME280_pressure;Samples;Min_cycle;Max_cycle;Signal;HPM_P1;HPM_P2
2023/04/26 00:02:05;;;;;;;4.07;2.27;;;5.40;72.90;;;4.79;66.81;97900.06;5062036;28;20470;-71
2023/04/26 00:04:32;;;;;;;7.90;2.93;;;5.40;72.60;;;4.73;67.78;97899.97;5050852;28;20450;-73
2023/04/26 00:07:00;;;;;;;4.97;2.90;;;5.30;72.80;;;4.61;67.89;97889.69;5042692;28;20654;-70
2023/04/26 00:09:27;;;;;;;3.53;2.10;;;5.30;72.90;;;4.46;67.64;97888.81;5040878;28;21010;-71
2023/04/26 00:11:55;;;;;;;7.00;2.70;;;5.20;72.70;;;4.48;68.18;97909.03;5046007;28;20922;-73
2023/04/26 00:14:23;;;;;;;8.90;2.47;;;5.20;73.20;;;4.38;68.23;97893.19;5044942;28;20476;-71
2023/04/26 00:16:51;;;;;;;2.60;2.40;;;5.10;73.20;;;4.37;68.61;97896.06;5052457;28;20568;-72
2023/04/26 00:19:18;;;;;;;5.57;3.10;;;5.10;73.30;;;4.34;69.21;97912.47;5044337;28;20456;-71
2023/04/26 00:21:45;;;;;;;2.80;2.60;;;5.00;73.60;;;4.19;69.20;97897.19;5044294;28;20455;-71
2023/04/26 00:24:13;;;;;;;3.83;2.90;;;4.90;73.60;;;4.33;68.79;97900.13;5050241;28;20446;-72
2023/04/26 00:26:40;;;;;;;2.67;2.43;;;4.90;73.30;;;4.22;68.77;97894.16;5041980;28;20463;-71
2023/04/26 00:29:07;;;;;;;6.30;3.00;;;4.90;73.40;;;4.27;68.04;97912.34;5040525;28;20534;-73
2023/04/26 00:31:36;;;;;;;4.40;2.53;;;4.90;73.40;;;4.22;67.95;97904.84;5046292;28;20458;-74
2023/04/26 00:34:03;;;;;;;4.50;3.47;;;4.90;73.20;;;4.12;68.09;97898.91;5056792;28;20478;-72
2023/04/26 00:36:31;;;;;;;3.90;3.10;;;4.90;72.90;;;4.06;68.04;97899.63;5054802;28;20458;-73
2023/04/26 00:38:59;;;;;;;3.20;2.90;;;4.80;73.00;;;4.04;68.09;97888.25;5063525;28;21208;-72
2023/04/26 00:41:26;;;;;;;4.07;2.93;;;4.80;73.20;;;4.00;68.45;97905.66;5044838;28;20462;-71
2023/04/26 00:43:54;;;;;;;4.13;2.83;;;4.70;73.40;;;3.83;68.64;97890.53;5041934;28;20465;-74
2023/04/26 00:46:22;;;;;;;4.83;2.90;;;4.60;73.40;;;3.90;68.75;97905.88;5046671;28;20455;-71
2023/04/26 00:48:51;;;;;;;4.60;2.80;;;4.60;73.80;;;3.83;69.53;97911.94;5040483;28;20926;-72
2023/04/26 00:51:19;;;;;;;6.43;3.20;;;4.50;73.80;;;3.80;69.90;97914.13;5037204;28;20451;-72
2023/04/26 00:53:49;;;;;;;6.07;2.57;;;4.50;74.30;;;3.23;70.64;97835.88;5047375;28;20469;-71
2023/04/26 00:56:17;;;;;;;3.87;2.50;;;4.30;74.50;;;3.60;71.02;97916.38;5045921;28;20450;-72
2023/04/26 00:58:46;;;;;;;4.17;2.60;;;4.30;75.00;;;3.56;71.24;97910.53;5045330;28;20455;-72
2023/04/26 01:01:13;;;;;;;4.40;2.53;;;4.20;75.30;;;3.57;71.87;97912.22;5045272;28;20464;-72
2023/04/26 01:03:40;;;;;;;5.57;3.10;;;4.20;75.70;;;3.36;71.87;97900.25;5041095;28;20448;-72
2023/04/26 01:06:09;;;;;;;4.90;2.50;;;4.10;75.90;;;3.36;71.93;97902.94;5043434;28;20459;-72
2023/04/26 01:08:36;;;;;;;6.90;3.43;;;4.00;76.60;;;3.27;72.79;97922.66;5042601;28;20493;-72
2023/04/26 01:11:05;;;;;;;5.23;3.63;;;3.90;77.30;;;3.16;73.43;97909.66;5049360;28;20445;-72
2023/04/26 01:13:32;;;;;;;6.40;3.40;;;3.80;78.00;;;3.11;73.54;97908.34;5039238;28;20446;-72
2023/04/26 01:16:01;;;;;;;5.10;3.27;;;3.70;78.80;;;1.54;73.74;97695.16;5035129;28;20454;-72
2023/04/26 01:18:28;;;;;;;5.10;3.50;;;3.60;79.30;;;3.13;73.33;97905.50;5065971;28;20490;-73
2023/04/26 01:20:56;;;;;;;9.93;3.27;;;3.70;80.30;;;3.09;74.35;97928.19;5049966;28;20454;-75
2023/04/26 01:23:25;;;;;;;5.87;3.40;;;3.60;79.80;;;2.80;74.54;97918.91;5048755;28;20461;-74
2023/04/26 01:25:55;;;;;;;4.30;3.43;;;3.50;80.40;;;2.73;74.45;97920.56;5050090;28;20453;-72
2023/04/26 01:28:22;;;;;;;4.50;3.30;;;3.50;80.70;;;2.82;75.04;97938.25;5048073;28;20877;-72
2023/04/26 01:30:51;;;;;;;5.60;3.40;;;3.60;80.80;;;2.81;75.15;97934.75;5049054;28;20686;-72
2023/04/26 01:33:18;;;;;;;4.93;3.17;;;3.50;80.90;;;2.86;75.50;97936.06;5041775;28;20451;-73
2023/04/26 01:35:45;;;;;;;7.40;3.90;;;3.50;81.20;;;2.67;75.57;97908.75;5060664;28;20520;-73
2023/04/26 01:38:13;;;;;;;8.70;3.87;;;3.50;81.70;;;2.74;75.95;97938.25;5076863;28;20496;-74
2023/04/26 01:40:44;;;;;;;4.70;3.70;;;3.40;81.90;;;2.79;75.45;97936.72;5078300;28;20520;-71
2023/04/26 01:43:14;;;;;;;7.43;3.30;;;3.50;82.00;;;2.67;76.35;97927.41;5058921;28;20483;-73
2023/04/26 01:45:41;;;;;;;2.67;2.43;;;3.40;82.30;;;2.81;75.49;97929.41;5071090;28;20455;-74
2023/04/26 01:48:08;;;;;;;3.77;3.07;;;3.30;83.00;;;2.86;75.28;97933.41;5056348;28;20457;-71
2023/04/26 01:50:36;;;;;;;7.00;2.80;;;3.30;83.20;;;2.66;75.83;97934.56;5052075;28;20477;-75
2023/04/26 01:53:03;;;;;;;5.93;3.70;;;3.30;82.50;;;2.52;76.39;97932.56;5060208;28;20452;-71
2023/04/26 01:55:30;;;;;;;5.23;4.13;;;3.20;83.40;;;2.40;77.38;97942.72;5045834;28;20878;-72
2023/04/26 01:57:59;;;;;;;3.30;2.93;;;3.10;84.40;;;2.37;77.81;97935.06;5062341;28;20477;-72
2023/04/26 02:00:27;;;;;;;4.37;3.43;;;3.00;85.30;;;2.36;78.22;97936.06;5050008;28;20515;-72
2023/04/26 02:02:55;;;;;;;6.57;3.80;;;3.00;86.00;;;2.32;78.22;97945.38;5048038;28;20485;-74
2023/04/26 02:05:23;;;;;;;3.97;2.73;;;3.00;86.40;;;2.21;78.68;97926.06;5043632;28;20945;-72
2023/04/26 02:07:53;;;;;;;5.47;3.50;;;2.90;86.80;;;2.26;78.49;97945.03;5047740;28;20935;-71
2023/04/26 02:10:20;;;;;;;4.50;4.07;;;2.90;87.30;;;2.19;78.66;97941.34;5044186;28;20474;-71
2023/04/26 02:12:48;;;;;;;6.07;3.33;;;2.90;87.40;;;2.08;78.95;97923.03;5063526;28;20483;-72
2023/04/26 02:15:16;;;;;;;9.40;5.13;;;2.90;87.60;;;2.16;79.01;97947.00;5044639;28;21195;-73
2023/04/26 02:17:43;;;;;;;9.83;3.60;;;2.80;87.70;;;2.18;79.01;97944.19;5055065;28;20456;-74
2023/04/26 02:20:12;;;;;;;4.93;3.40;;;2.90;87.90;;;2.18;78.78;97937.00;5040246;28;20443;-72
2023/04/26 02:22:39;;;;;;;6.20;3.80;;;2.90;87.30;;;2.34;78.69;97946.03;5042163;28;20458;-72
2023/04/26 02:25:08;;;;;;;4.87;3.87;;;2.90;87.80;;;2.01;78.86;97906.84;5046668;28;20445;-71
2023/04/26 02:27:35;;;;;;;5.30;3.33;;;2.90;87.30;;;2.18;78.89;97944.19;5063939;28;20477;-71
2023/04/26 02:30:03;;;;;;;4.60;3.00;;;2.90;87.20;;;2.14;78.80;97943.69;5052008;28;20469;-73
2023/04/26 02:32:31;;;;;;;4.90;2.83;;;2.90;86.90;;;2.17;78.80;97943.34;5062993;28;20454;-73
2023/04/26 02:34:59;;;;;;;4.70;3.03;;;2.90;86.70;;;2.01;78.83;97911.34;5052076;28;20473;-71
2023/04/26 02:37:27;;;;;;;5.20;3.27;;;2.80;87.00;;;1.98;78.50;97921.31;5045269;28;20554;-72
2023/04/26 02:39:54;;;;;;;5.33;3.63;;;2.80;87.40;;;2.05;79.37;97939.34;5051628;28;20531;-74
2023/04/26 02:42:22;;;;;;;6.87;3.43;;;2.70;87.80;;;1.94;79.24;97933.31;5047319;28;20995;-72
2023/04/26 02:44:49;;;;;;;3.63;2.90;;;2.70;87.90;;;1.96;79.04;97941.13;5047127;28;20461;-71
2023/04/26 02:47:17;;;;;;;5.80;3.03;;;2.80;87.50;;;1.95;79.17;97950.97;5043801;28;20458;-72
2023/04/26 02:49:46;;;;;;;6.00;3.70;;;2.70;87.00;;;1.93;78.75;97923.66;5045625;28;20540;-73
2023/04/26 02:52:13;;;;;;;7.57;3.60;;;2.70;87.30;;;1.55;78.83;97864.59;5035215;28;20449;-72
2023/04/26 02:54:41;;;;;;;4.80;3.40;;;2.70;86.70;;;1.48;79.01;97880.38;5041432;28;20498;-72
2023/04/26 02:57:09;;;;;;;4.80;3.33;;;2.70;87.00;;;1.93;79.22;97938.78;5045778;28;20562;-73
2023/04/26 02:59:36;;;;;;;5.00;3.20;;;2.70;87.50;;;1.93;79.15;97946.78;5044143;28;20986;-73
2023/04/26 03:02:03;;;;;;;4.47;2.70;;;2.70;87.10;;;1.95;78.90;97944.78;5050006;28;20442;-73
2023/04/26 03:04:34;;;;;;;4.40;3.20;;;2.70;87.20;;;1.84;79.23;97943.25;5043800;28;20450;-73
2023/04/26 03:07:04;;;;;;;4.53;3.30;;;2.60;87.30;;;1.76;79.14;97946.72;5038938;28;20472;-71
2023/04/26 03:09:33;;;;;;;6.03;3.90;;;2.60;87.60;;;1.74;79.82;97943.41;5049325;28;20455;-72
2023/04/26 03:12:00;;;;;;;6.20;3.20;;;2.60;87.70;;;1.69;80.03;97941.22;5044615;28;20524;-71
2023/04/26 03:14:28;;;;;;;5.37;3.53;;;2.60;87.60;;;1.61;79.66;97917.22;5040630;28;20930;-72
2023/04/26 03:16:55;;;;;;;4.67;3.43;;;2.50;87.70;;;1.72;79.66;97939.22;5044262;28;20457;-74
2023/04/26 03:19:22;;;;;;;7.13;3.80;;;2.50;88.10;;;1.66;80.15;97954.84;5044625;28;20492;-72
2023/04/26 03:21:50;;;;;;;6.63;4.17;;;2.40;88.50;;;1.17;79.96;97864.94;5038027;28;20458;-70
2023/04/26 03:24:18;;;;;;;5.37;3.20;;;2.40;89.00;;;1.61;80.38;97959.00;5072484;28;20450;-72
2023/04/26 03:26:46;;;;;;;7.27;3.47;;;2.30;89.50;;;1.51;80.76;97945.81;5047814;28;20506;-72
2023/04/26 03:29:13;;;;;;;10.50;4.60;;;2.30;89.80;;;1.46;80.86;97950.78;5057166;28;20468;-72
2023/04/26 03:31:40;;;;;;;4.60;3.50;;;2.30;90.10;;;1.44;81.35;97950.94;5055816;28;20469;-73
2023/04/26 03:34:08;;;;;;;6.63;3.63;;;2.20;90.30;;;1.63;80.92;97957.84;5045203;28;20569;-73
2023/04/26 03:36:35;;;;;;;5.40;3.10;;;2.20;90.70;;;1.46;81.38;97950.78;5041969;28;20484;-72
2023/04/26 03:39:02;;;;;;;5.90;3.00;;;2.20;90.30;;;1.42;81.08;97955.56;5042849;28;20451;-71
2023/04/26 03:41:34;;;;;;;5.37;3.60;;;2.20;90.70;;;1.17;81.83;97920.00;5042481;28;20548;-72
2023/04/26 03:44:02;;;;;;;6.20;3.53;;;2.10;90.70;;;1.38;81.71;97959.56;5042775;28;20520;-74
2023/04/26 03:46:29;;;;;;;9.20;4.80;;;2.10;90.90;;;1.38;81.94;97964.88;5049024;28;20460;-74
2023/04/26 03:48:56;;;;;;;7.80;5.17;;;2.00;91.20;;;-0.49;82.36;97684.97;5034391;28;20461;-72
2023/04/26 03:51:23;;;;;;;4.37;3.70;;;2.00;91.50;;;0.75;82.73;97887.81;5037515;28;20527;-72
2023/04/26 03:53:51;;;;;;;9.13;4.13;;;2.00;91.80;;;0.73;82.80;97886.28;5032968;28;20466;-72
2023/04/26 03:56:20;;;;;;;5.87;4.53;;;2.00;91.90;;;1.28;82.99;97975.63;5052740;28;20498;-74
2023/04/26 03:58:50;;;;;;;6.90;4.10;;;2.00;91.90;;;1.16;83.36;97955.59;5060635;28;20458;-73
2023/04/26 04:01:19;;;;;;;7.07;4.30;;;2.00;91.80;;;1.31;82.64;97979.81;5047796;28;20920;-75
2023/04/26 04:03:46;;;;;;;15.63;4.00;;;2.00;92.00;;;1.31;82.87;97980.66;5056770;28;20447;-75
2023/04/26 04:06:13;;;;;;;7.77;3.90;;;2.00;92.00;;;1.23;83.12;97983.25;5037855;28;20469;-73
2023/04/26 04:08:40;;;;;;;5.80;4.10;;;2.00;92.20;;;1.24;83.38;97968.94;5048042;28;20509;-72
2023/04/26 04:11:08;;;;;;;6.10;4.30;;;2.00;92.40;;;1.22;83.33;97992.22;5046324;28;20450;-73
2023/04/26 04:13:35;;;;;;;13.13;5.27;;;2.00;92.20;;;0.84;82.82;97905.50;5047286;28;20456;-71
2023/04/26 04:16:05;;;;;;;9.53;4.37;;;2.00;92.00;;;1.24;82.84;97974.28;5046094;28;20478;-72
2023/04/26 04:18:32;;;;;;;5.50;3.80;;;2.00;91.90;;;0.95;83.29;97917.72;5050273;28;20814;-71
2023/04/26 04:21:00;;;;;;;6.53;5.17;;;2.10;91.90;;;1.37;82.65;97979.19;5048662;28;20454;-72
2023/04/26 04:23:27;;;;;;;4.70;3.70;;;2.10;91.60;;;1.33;82.38;97952.03;5045646;28;20449;-72
2023/04/26 04:25:55;;;;;;;7.47;4.97;;;2.20;91.60;;;1.76;81.59;97977.88;5036937;28;20466;-74
2023/04/26 04:28:22;;;;;;;5.17;3.80;;;2.40;91.60;;;2.20;80.08;97979.53;5044858;28;20540;-72
2023/04/26 04:30:51;;;;;;;7.50;4.77;;;2.70;91.00;;;2.68;78.42;97985.94;5040947;28;20476;-73
2023/04/26 04:33:20;;;;;;;15.27;4.90;;;3.30;89.70;;;3.10;76.76;97970.72;5046639;28;20438;-74
2023/04/26 04:35:47;;;;;;;7.80;4.83;;;3.80;85.90;;;3.36;73.84;97982.22;5045997;28;20494;-71
2023/04/26 04:38:16;;;;;;;11.07;4.30;;;4.00;81.60;;;3.84;72.65;97984.91;5080349;28;20975;-75
2023/04/26 04:40:43;;;;;;;5.47;4.20;;;4.40;80.30;;;4.30;70.80;97988.72;5049368;28;20550;-72
2023/04/26 04:43:11;;;;;;;8.73;3.87;;;4.90;78.30;;;4.82;68.88;97977.34;5047950;28;20627;-75
2023/04/26 04:45:39;;;;;;;7.70;4.00;;;5.50;77.20;;;5.04;66.07;97988.19;5036413;28;21038;-75
2023/04/26 04:48:07;;;;;;;8.33;6.07;;;6.00;74.90;;;5.15;66.38;97994.13;5069155;28;20970;-77
2023/04/26 04:50:37;;;;;;;8.83;4.60;;;6.00;73.90;;;4.85;64.99;97886.97;5045257;28;20516;-75
2023/04/26 04:53:04;;;;;;;10.97;6.00;;;6.30;73.60;;;5.63;64.84;97997.34;5021799;28;20464;-78
2023/04/26 04:55:32;;;;;;;13.47;6.97;;;6.40;72.70;;;5.32;65.19;98001.00;5037665;28;20489;-75
2023/04/26 04:58:00;;;;;;;10.03;5.63;;;6.20;72.70;;;5.73;63.55;97985.53;5039865;28;20457;-72
2023/04/26 05:00:27;;;;;;;8.23;6.00;;;6.50;72.20;;;5.92;62.70;97995.69;5069208;28;20597;-71
2023/04/26 05:02:56;;;;;;;8.73;5.37;;;6.80;71.10;;;6.72;60.26;97989.59;5050266;28;20552;-72
2023/04/26 05:05:24;;;;;;;9.47;5.60;;;7.60;69.80;;;6.43;60.46;97942.25;5040173;28;20466;-81
2023/04/26 05:07:52;;;;;;;8.10;4.63;;;7.90;68.70;;;7.54;58.71;97999.19;5038218;28;20440;-72
2023/04/26 05:10:20;;;;;;;10.40;6.77;;;8.40;67.70;;;7.83;56.94;97995.44;5047157;28;21027;-75
2023/04/26 05:12:47;;;;;;;7.60;5.17;;;8.60;65.10;;;7.76;57.35;97991.88;5049102;28;20440;-72
2023/04/26 05:15:15;;;;;;;5.63;3.97;;;8.80;64.10;;;8.20;56.30;98000.59;5040833;28;20815;-76
2023/04/26 05:17:42;;;;;;;9.07;5.17;;;9.10;63.70;;;7.93;56.76;97997.78;5046388;28;20459;-76
2023/04/26 05:20:10;;;;;;;7.50;5.57;;;9.00;63.10;;;7.53;58.09;98001.03;5045422;28;20451;-73
2023/04/26 05:22:38;;;;;;;7.50;5.23;;;8.90;63.10;;;7.76;56.73;98005.31;5039158;28;20459;-76
2023/04/26 05:25:09;;;;;;;7.50;5.40;;;8.90;63.20;;;7.27;57.88;98007.03;5044247;28;20497;-75
2023/04/26 05:27:37;;;;;;;9.50;5.70;;;8.90;61.90;;;7.49;57.80;98019.41;5044373;28;20468;-73
2023/04/26 05:30:07;;;;;;;6.67;4.50;;;8.90;61.80;;;6.79;58.32;97966.34;5043503;28;20485;-75
2023/04/26 05:32:37;;;;;;;5.70;4.23;;;8.80;61.60;;;7.40;58.38;98012.50;5049480;28;20466;-75
2023/04/26 05:35:06;;;;;;;5.90;4.63;;;8.80;62.20;;;7.85;56.93;98028.34;5047524;28;20447;-76
2023/04/26 05:37:33;;;;;;;4.77;3.90;;;9.20;60.80;;;8.04;55.84;98009.81;5067648;28;20476;-74
2023/04/26 05:40:00;;;;;;;4.63;3.80;;;9.60;60.30;;;8.28;56.29;98018.44;5060569;28;20460;-74
2023/04/26 05:42:30;;;;;;;5.90;4.60;;;9.60;59.80;;;8.54;54.30;98024.97;5061732;28;20459;-74
2023/04/26 05:44:59;;;;;;;6.93;4.17;;;9.90;58.70;;;8.33;54.82;98026.72;5057229;28;20481;-75
2023/04/26 05:47:27;;;;;;;12.10;4.57;;;9.70;58.40;;;8.99;52.08;98036.06;5072193;28;20881;-75
2023/04/26 05:49:54;;;;;;;9.80;3.70;;;10.10;56.50;;;8.08;53.99;98030.75;5055044;28;20452;-75
2023/04/26 05:52:21;;;;;;;8.03;4.70;;;9.90;56.50;;;6.72;58.11;98043.31;5054377;28;20466;-76
2023/04/26 05:54:48;;;;;;;5.83;3.60;;;8.80;57.50;;;5.41;62.36;98054.53;5049808;28;20459;-76
2023/04/26 05:57:18;;;;;;;4.30;2.67;;;7.30;60.40;;;4.80;64.32;98040.94;5043152;28;20473;-75
2023/04/26 05:59:47;;;;;;;5.50;3.73;;;6.30;64.30;;;4.95;64.61;98041.00;5045771;28;20495;-77
2023/04/26 06:02:14;;;;;;;4.60;3.43;;;5.90;67.00;;;4.87;64.97;98048.25;5038936;28;20481;-69
2023/04/26 06:04:41;;;;;;;5.30;3.70;;;5.70;68.80;;;4.64;65.91;98036.50;5039819;28;20475;-72
2023/04/26 06:07:08;;;;;;;4.27;3.50;;;5.50;70.30;;;4.41;66.13;97969.59;5037596;28;20458;-73
2023/04/26 06:09:36;;;;;;;8.10;4.13;;;5.60;71.20;;;5.02;65.46;98048.31;5039029;28;20463;-73
2023/04/26 06:12:03;;;;;;;7.63;4.50;;;5.60;71.20;;;5.20;65.10;98045.31;5055200;28;20533;-74
2023/04/26 06:14:30;;;;;;;4.00;3.43;;;5.80;71.40;;;5.32;63.76;98057.28;5041039;28;20457;-74
2023/04/26 06:17:01;;;;;;;3.93;3.17;;;5.90;71.10;;;5.49;64.29;98057.13;5044057;28;21011;-73
2023/04/26 06:19:29;;;;;;;4.43;3.40;;;6.00;71.10;;;5.01;64.12;97988.56;5048770;28;20478;-72
2023/04/26 06:21:56;;;;;;;5.90;3.80;;;6.10;70.70;;;5.33;64.55;98061.63;5037365;28;20927;-72
2023/04/26 06:24:24;;;;;;;6.17;3.40;;;6.10;70.70;;;5.46;63.51;98054.81;5050776;28;20476;-72
2023/04/26 06:26:52;;;;;;;6.03;2.93;;;6.10;70.70;;;5.48;64.13;98069.72;5028600;28;20460;-72
2023/04/26 06:29:20;;;;;;;3.30;2.93;;;6.10;70.70;;;5.16;64.16;98044.03;5044024;28;20465;-73
2023/04/26 06:31:47;;;;;;;3.63;2.80;;;6.10;70.50;;;5.10;64.94;98072.34;5042648;28;20465;-72
2023/04/26 06:34:16;;;;;;;5.30;3.10;;;6.00;70.50;;;5.08;65.68;98061.84;5041558;28;20498;-72
2023/04/26 06:36:43;;;;;;;5.07;3.77;;;5.90;71.20;;;5.36;64.21;98049.72;5033199;28;20993;-73
2023/04/26 06:39:11;;;;;;;6.73;2.67;;;6.00;71.20;;;5.39;63.46;98065.41;5039659;28;20865;-73
2023/04/26 06:41:39;;;;;;;6.50;3.20;;;6.00;70.60;;;5.38;64.07;98053.88;5042165;28;20474;-72
2023/04/26 06:44:06;;;;;;;3.37;2.03;;;6.10;70.70;;;5.37;63.73;98070.94;5044423;28;20441;-73
2023/04/26 06:46:33;;;;;;;3.70;2.70;;;6.00;69.70;;;5.52;63.27;98071.00;5036595;28;20945;-72
2023/04/26 06:49:01;;;;;;;2.53;2.00;;;6.10;69.50;;;5.63;62.53;98071.59;5043170;28;20950;-74
2023/04/26 06:51:30;;;;;;;2.30;2.10;;;6.20;69.10;;;5.44;62.07;98072.94;5041864;28;20455;-75
2023/04/26 06:53:57;;;;;;;2.30;1.90;;;6.10;67.90;;;5.38;61.39;98059.25;5036091;28;21033;-72
2023/04/26 06:56:25;;;;;;;3.77;2.03;;;6.10;67.70;;;5.51;61.29;98065.81;5045037;28;20808;-73
2023/04/26 06:59:00;;;;;;;3.67;2.20;;;6.20;67.80;;;5.55;61.96;98077.84;5036934;28;20459;-72
2023/04/26 07:01:27;;;;;;;3.50;2.90;;;6.20;67.80;;;5.75;61.25;98072.78;5039649;28;20459;-71
2023/04/26 07:03:56;;;;;;;2.53;2.13;;;6.30;67.70;;;5.75;60.36;98070.09;5039764;28;20894;-73
2023/04/26 07:06:24;;;;;;;2.80;2.10;;;6.40;67.10;;;5.71;60.68;98071.50;5038741;28;20487;-72
2023/04/26 07:08:53;;;;;;;2.40;1.90;;;6.40;66.40;;;5.82;61.38;98075.56;5033555;28;20455;-72
2023/04/26 07:11:21;;;;;;;2.47;1.90;;;6.40;67.20;;;5.78;60.17;98069.75;5041813;28;20546;-72
2023/04/26 07:13:48;;;;;;;2.33;1.90;;;6.50;66.10;;;5.96;58.67;98071.25;5056683;28;20456;-73
2023/04/26 07:16:17;;;;;;;3.20;2.33;;;6.50;65.40;;;6.08;58.07;98069.81;5037295;28;20586;-73
2023/04/26 07:18:47;;;;;;;3.73;1.80;;;6.60;65.30;;;6.15;58.70;98069.06;5043858;28;20629;-73
2023/04/26 07:21:14;;;;;;;4.10;1.97;;;6.70;65.40;;;6.21;57.54;98081.72;5041833;28;20463;-73
2023/04/26 07:23:42;;;;;;;3.87;2.20;;;6.80;64.10;;;6.21;58.34;98068.28;5047516;28;20531;-74
2023/04/26 07:26:12;;;;;;;2.67;1.57;;;6.90;64.00;;;6.08;55.74;98068.97;5035252;28;20943;-73
2023/04/26 07:28:39;;;;;;;2.17;1.63;;;6.80;60.80;;;6.06;56.06;98065.63;5045398;28;20614;-73
2023/04/26 07:31:06;;;;;;;2.60;1.70;;;6.80;61.10;;;6.11;56.68;98073.94;5045322;28;20451;-72
2023/04/26 07:33:33;;;;;;;2.83;1.80;;;6.80;61.50;;;6.28;57.37;98057.66;5058912;28;20430;-73
2023/04/26 07:36:01;;;;;;;2.67;1.73;;;6.80;62.60;;;6.42;56.52;98075.59;5064818;28;20493;-73
2023/04/26 07:38:28;;;;;;;3.40;1.37;;;7.00;62.00;;;6.23;56.86;98069.78;5045074;28;20440;-73
2023/04/26 07:40:56;;;;;;;3.20;1.97;;;7.00;62.00;;;6.44;56.65;98070.84;5038411;28;20865;-73
2023/04/26 07:43:27;;;;;;;3.07;2.00;;;7.00;62.10;;;6.55;56.16;98058.84;5039436;28;20457;-74
2023/04/26 07:45:54;;;;;;;3.50;2.23;;;7.10;61.50;;;6.73;54.76;98061.09;5054463;28;20488;-72
2023/04/26 07:48:22;;;;;;;3.20;1.73;;;7.30;60.40;;;6.73;54.97;98066.44;5042097;28;20527;-73
2023/04/26 07:50:49;;;;;;;1.90;1.50;;;7.30;60.10;;;6.88;54.65;98073.63;5042644;28;20460;-74
2023/04/26 07:53:16;;;;;;;2.33;1.93;;;7.40;60.30;;;6.88;53.96;98062.88;5041665;28;20503;-73
2023/04/26 07:55:43;;;;;;;3.67;1.57;;;7.50;58.90;;;7.04;52.47;98067.19;5042838;28;20451;-73
2023/04/26 07:58:13;;;;;;;6.80;1.70;;;7.60;58.20;;;7.00;52.21;98056.00;5040331;28;20447;-73
2023/04/26 08:00:41;;;;;;;5.23;2.10;;;7.60;57.50;;;6.92;50.00;98065.00;5039398;28;20540;-72
2023/04/26 08:03:09;;;;;;;1.53;1.30;;;7.60;54.70;;;6.95;48.39;98071.88;5037765;28;20463;-73
2023/04/26 08:05:54;;;;;;;2.60;1.40;;;7.60;53.10;;;7.22;48.64;98066.75;5042668;28;20963;-71
2023/04/26 08:08:44;;;;;;;1.50;1.40;;;7.70;52.90;;;7.20;47.76;98055.34;5043180;28;20475;-72
2023/04/26 08:11:31;;;;;;;1.23;1.13;;;7.80;52.10;;;7.28;50.12;98062.44;5036916;28;20547;-71
2023/04/26 08:14:18;;;;;;;1.70;1.20;;;7.80;53.30;;;6.99;49.38;98010.53;5041872;28;20815;-69
2023/04/26 08:17:08;;;;;;;1.67;1.30;;;8.00;53.40;;;7.65;48.94;98072.06;5038481;28;20505;-72
2023/04/26 08:19:55;;;;;;;6.53;1.53;;;8.10;53.60;;;7.88;48.24;98068.31;5037925;28;20449;-72
2023/04/26 08:22:43;;;;;;;5.00;1.40;;;8.30;52.50;;;7.87;48.67;98080.09;5039800;28;21238;-72
2023/04/26 08:25:33;;;;;;;3.27;1.73;;;8.40;52.70;;;7.53;48.70;98073.63;5041735;28;20442;-71
2023/04/26 08:28:20;;;;;;;2.60;1.80;;;8.30;52.00;;;7.73;48.72;98076.47;5039951;28;20443;-72
2023/04/26 08:31:08;;;;;;;3.00;1.70;;;8.30;52.20;;;7.88;48.71;98079.06;5039254;28;20437;-71
2023/04/26 08:33:57;;;;;;;1.93;1.50;;;8.30;52.50;;;8.59;46.28;98065.59;5037794;28;20654;-71
2023/04/26 08:36:45;;;;;;;2.13;1.27;;;8.80;51.90;;;9.59;44.88;98073.03;5037267;28;20458;-70
2023/04/26 08:39:33;;;;;;;1.73;1.33;;;9.60;51.40;;;9.82;42.23;98070.94;5039656;28;20464;-67
2023/04/26 08:42:24;;;;;;;1.50;1.37;;;10.20;47.40;;;9.87;42.67;98058.47;5031872;28;20481;-66
2023/04/26 08:45:12;;;;;;;2.63;1.60;;;10.40;47.10;;;9.70;42.50;98068.03;5023580;28;21030;-67
2023/04/26 08:48:07;;;;;;;1.53;1.43;;;10.40;46.70;;;9.50;44.01;98063.50;5037693;28;20553;-68
2023/04/26 08:50:56;;;;;;;2.57;1.43;;;10.10;47.20;;;8.71;44.36;98006.59;5038364;28;20476;-77
2023/04/26 08:53:44;;;;;;;1.83;1.47;;;9.80;47.70;;;9.24;44.29;98064.28;5040570;28;20442;-75
2023/04/26 08:56:34;;;;;;;1.40;1.30;;;9.80;48.00;;;9.00;44.54;98075.44;5039086;28;20480;-74
2023/04/26 08:59:23;;;;;;;1.87;1.63;;;9.60;47.80;;;9.23;43.85;98074.25;5033451;28;20443;-74
2023/04/26 09:02:16;;;;;;;1.37;1.13;;;9.70;47.70;;;9.71;42.51;98072.41;5035021;28;20444;-72
2023/04/26 09:05:05;;;;;;;2.43;1.60;;;10.10;46.40;;;9.17;42.50;98059.72;5035973;28;20441;-73
2023/04/26 09:07:57;;;;;;;2.50;1.93;;;9.90;46.20;;;9.37;42.47;98067.00;5044120;28;20448;-73
2023/04/26 09:10:45;;;;;;;1.77;1.30;;;9.90;45.80;;;9.50;42.13;98069.72;5039177;28;20520;-74
2023/04/26 09:13:32;;;;;;;1.30;1.20;;;10.00;44.90;;;9.37;40.13;98061.59;5047041;28;20444;-73
2023/04/26 09:16:20;;;;;;;1.97;1.53;;;10.10;42.70;;;9.37;41.99;98047.31;5041215;28;20517;-73
2023/04/26 09:19:07;;;;;;;1.90;1.70;;;10.10;44.40;;;9.91;43.08;98059.72;5037158;28;20436;-75
2023/04/26 09:21:55;;;;;;;2.30;1.20;;;10.30;45.90;;;9.31;42.42;98043.56;5060772;28;20429;-74
2023/04/26 09:24:51;;;;;;;2.70;1.33;;;10.10;44.50;;;9.23;41.01;98058.09;5055245;28;20488;-74
2023/04/26 09:27:42;;;;;;;1.50;1.40;;;10.00;43.70;;;9.53;41.34;98068.47;5057454;28;20437;-72
2023/04/26 09:30:30;;;;;;;2.13;1.20;;;10.00;43.80;;;9.26;41.58;98056.84;5057734;28;20471;-74
2023/04/26 09:33:20;;;;;;;6.17;1.30;;;9.90;44.60;;;9.46;40.97;98054.13;5061510;28;20529;-74
2023/04/26 09:36:13;;;;;;;4.27;1.60;;;9.90;44.50;;;9.24;40.05;98023.84;5040431;28;20435;-75
2023/04/26 09:39:01;;;;;;;2.17;1.37;;;10.00;42.80;;;9.46;39.69;98056.84;5048157;28;20542;-75
2023/04/26 09:41:50;;;;;;;1.63;1.20;;;10.00;42.40;;;9.85;37.79;98049.75;5053598;28;20427;-75
2023/04/26 09:44:38;;;;;;;1.27;1.10;;;10.20;41.60;;;9.87;37.03;98050.38;5027966;28;20474;-74
2023/04/26 09:47:25;;;;;;;2.40;1.17;;;10.40;40.00;;;10.42;36.34;98035.72;5038578;28;21044;-75
2023/04/26 09:50:13;;;;;;;1.50;1.20;;;10.70;40.60;;;10.69;35.78;98038.31;5053557;28;20812;-75
2023/04/26 09:53:01;;;;;;;2.30;1.77;;;11.10;40.40;;;10.44;35.01;98051.72;5030538;28;20448;-76
2023/04/26 09:55:48;;;;;;;1.27;1.10;;;11.00;39.00;;;10.68;34.55;98043.94;5041799;28;20454;-74
2023/04/26 09:58:40;;;;;;;1.53;1.13;;;11.00;39.20;;;10.85;33.99;98036.16;5046753;28;21067;-74
2023/04/26 10:01:29;;;;;;;2.70;1.20;;;11.30;38.60;;;10.48;33.84;98032.16;5034684;28;20518;-76
2023/04/26 10:04:16;;;;;;;1.07;1.00;;;11.20;37.30;;;10.81;33.96;98030.34;5042484;28;20441;-75
2023/04/26 10:07:04;;;;;;;1.73;1.33;;;11.30;38.00;;;11.01;34.89;98030.22;5040459;28;20524;-75
2023/04/26 10:09:52;;;;;;;2.90;1.23;;;11.50;38.40;;;11.28;34.39;98030.03;5044513;28;20438;-73
2023/04/26 10:12:42;;;;;;;1.27;1.17;;;11.70;38.80;;;11.69;33.10;98013.47;5041637;28;20444;-76
2023/04/26 10:15:31;;;;;;;1.90;1.67;;;12.00;38.40;;;11.53;33.51;98021.09;5033800;28;20679;-74
2023/04/26 10:18:18;;;;;;;3.00;1.70;;;12.20;37.90;;;11.55;35.88;98029.00;5037278;28;20559;-75
2023/04/26 10:21:11;;;;;;;2.03;1.13;;;12.00;39.30;;;11.44;36.28;98033.22;5048731;28;20819;-74
2023/04/26 10:24:00;;;;;;;2.63;1.70;;;12.00;39.40;;;10.58;36.76;98025.47;5029587;28;21465;-75
2023/04/26 10:26:53;;;;;;;4.73;2.20;;;11.50;39.00;;;11.13;37.02;98021.41;5038899;28;20507;-74
2023/04/26 10:30:08;;;;;;;2.03;1.00;;;11.50;39.80;;;11.74;35.22;98024.44;5037345;28;20536;-74
2023/04/26 10:33:18;;;;;;;2.20;1.90;;;12.00;39.60;;;11.48;35.63;98012.81;5040876;28;20940;-75
2023/04/26 10:36:13;;;;;;;1.70;1.60;;;12.10;39.30;;;10.80;37.57;98020.59;5041656;28;20433;-74
2023/04/26 10:39:21;;;;;;;1.83;1.37;;;11.60;39.60;;;10.85;36.88;98025.34;5041490;28;20473;-75
2023/04/26 10:42:23;;;;;;;2.00;1.67;;;11.50;39.80;;;11.20;36.78;98025.72;5037410;28;20937;-65
2023/04/26 10:45:27;;;;;;;2.67;1.47;;;11.60;39.80;;;11.38;36.09;98026.84;5040777;28;20916;-66
2023/04/26 10:48:16;;;;;;;1.60;1.50;;;11.80;39.40;;;11.83;35.75;98017.69;5038362;28;20449;-66
2023/04/26 10:51:12;;;;;;;2.00;1.80;;;12.10;39.90;;;10.40;36.49;97862.25;5045872;28;20503;-66
2023/04/26 10:54:01;;;;;;;3.50;1.80;;;11.90;39.50;;;11.57;35.67;98016.88;5033732;28;21400;-66
2023/04/26 10:56:52;;;;;;;1.80;1.57;;;12.00;39.30;;;11.19;36.69;98021.34;5039486;28;20435;-68